Time;durP1;ratioP1;P1;durP2;ratioP2;P2;SDS_P1;SDS_P2;PMS_P1;PMS_P2;Temp;Humidity;BMP_temperature;BMP_pressure;BME280_temperature;BME280_humidity;BME280_pressure;Samples;Min_cycle;Max_cycle;Signal;HPM_P1;HPM_P2
2021/08/21 00:01:22;;;;;;;23.83;13.65;;;;;;;14.12;100.00;98082.50;5011267;28;20045;-77
2021/08/21 00:03:49;;;;;;;28.15;13.95;;;;;;;14.02;100.00;98076.63;5011976;28;20128;-77
2021/08/21 00:06:15;;;;;;;21.83;13.48;;;;;;;13.99;100.00;98082.75;5011609;28;20049;-77
2021/08/21 00:08:42;;;;;;;23.67;12.45;;;;;;;13.86;100.00;98081.03;5018889;28;20053;-78
2021/08/21 00:11:08;;;;;;;22.95;12.60;;;;;;;13.91;100.00;98086.28;5020964;28;20103;-78
2021/08/21 00:13:35;;;;;;;21.92;12.55;;;;;;;13.96;100.00;98086.91;5019961;28;20037;-77
2021/08/21 00:16:02;;;;;;;23.00;11.65;;;;;;;13.76;100.00;98082.16;5006686;28;20125;-77
2021/08/21 00:18:28;;;;;;;24.63;13.35;;;;;;;13.78;100.00;98085.38;5031770;28;20053;-77
2021/08/21 00:20:55;;;;;;;22.98;12.63;;;;;;;13.74;100.00;98096.09;5025530;28;20056;-78
2021/08/21 00:23:21;;;;;;;24.92;13.43;;;;;;;13.84;100.00;98083.25;5013574;28;20064;-77
2021/08/21 00:25:49;;;;;;;22.70;13.60;;;;;;;13.87;100.00;98077.97;5028998;28;20120;-78
2021/08/21 00:28:15;;;;;;;22.73;13.25;;;;;;;13.76;100.00;98079.44;5011363;28;20054;-77
2021/08/21 00:30:42;;;;;;;21.60;12.63;;;;;;;13.73;100.00;98075.44;4995626;28;20064;-78
2021/08/21 00:33:09;;;;;;;21.85;12.68;;;;;;;13.64;100.00;98080.13;5012653;28;20834;-77
2021/08/21 00:35:36;;;;;;;22.13;12.98;;;;;;;13.78;100.00;98081.84;5012274;28;20073;-77
2021/08/21 00:38:03;;;;;;;23.17;12.75;;;;;;;13.67;100.00;98074.03;5030159;28;20038;-78
2021/08/21 00:40:29;;;;;;;19.35;12.13;;;;;;;13.74;100.00;98089.84;5011540;28;20046;-78
2021/08/21 00:42:56;;;;;;;24.73;12.63;;;;;;;13.54;100.00;98077.75;5029147;28;20038;-78
2021/08/21 00:45:23;;;;;;;27.65;13.65;;;;;;;13.49;100.00;98075.19;5011986;28;20061;-78
2021/08/21 00:47:49;;;;;;;23.88;12.60;;;;;;;13.56;100.00;98085.56;5012275;28;20049;-78
2021/08/21 00:50:17;;;;;;;21.45;12.52;;;;;;;13.49;100.00;98082.56;4996322;28;20076;-78
2021/08/21 00:52:44;;;;;;;24.33;13.30;;;;;;;13.47;100.00;98092.97;5014414;28;20047;-77
2021/08/21 00:55:11;;;;;;;27.50;13.90;;;;;;;13.42;100.00;98080.31;5033613;28;20049;-78
2021/08/21 00:57:38;;;;;;;22.40;13.10;;;;;;;13.45;100.00;98084.31;5015709;28;20484;-78
2021/08/21 01:00:06;;;;;;;22.83;13.77;;;;;;;13.22;100.00;98089.13;5016186;28;20527;-78
2021/08/21 01:02:34;;;;;;;23.45;14.18;;;;;;;13.43;100.00;98090.06;5015835;28;20045;-78
2021/08/21 01:05:04;;;;;;;23.38;14.32;;;;;;;13.26;100.00;98078.41;5015748;28;20046;-78
2021/08/21 01:07:35;;;;;;;31.33;15.05;;;;;;;13.32;100.00;98082.56;4999204;28;20053;-78
2021/08/21 01:10:07;;;;;;;28.27;13.35;;;;;;;13.39;100.00;98083.69;4998552;28;20053;-77
2021/08/21 01:12:34;;;;;;;24.75;13.18;;;;;;;13.33;100.00;98082.25;5032496;28;20121;-77
2021/08/21 01:15:02;;;;;;;25.42;13.32;;;;;;;13.32;100.00;98079.84;5031879;28;20049;-77
2021/08/21 01:17:29;;;;;;;23.95;13.10;;;;;;;13.19;100.00;98086.25;5014207;28;20050;-77
2021/08/21 01:19:56;;;;;;;20.45;12.52;;;;;;;13.24;100.00;98073.28;4998049;28;20060;-77
2021/08/21 01:22:25;;;;;;;23.65;12.93;;;;;;;13.20;100.00;98072.34;5032242;28;20038;-77
2021/08/21 01:24:54;;;;;;;21.92;12.68;;;;;;;13.24;100.00;98084.16;5032639;28;20079;-78
2021/08/21 01:27:26;;;;;;;21.75;12.90;;;;;;;13.34;100.00;98085.78;5032995;28;20045;-78
2021/08/21 01:29:54;;;;;;;26.35;12.75;;;;;;;13.35;100.00;98068.31;5016251;28;20076;-77
2021/08/21 01:32:22;;;;;;;22.38;12.35;;;;;;;13.21;100.00;98078.59;5015516;28;20393;-78
2021/08/21 01:34:49;;;;;;;25.00;11.40;;;;;;;13.15;100.00;98077.13;5014845;28;20049;-78
2021/08/21 01:37:17;;;;;;;25.60;12.32;;;;;;;13.08;100.00;98062.09;5032748;28;20496;-78
2021/08/21 01:39:49;;;;;;;22.83;12.50;;;;;;;13.16;100.00;98071.41;5015729;28;20056;-78
2021/08/21 01:42:16;;;;;;;25.10;11.75;;;;;;;12.92;100.00;98065.59;5014456;28;20151;-78
2021/08/21 01:44:44;;;;;;;17.17;10.73;;;;;;;12.97;100.00;98076.31;5015650;28;20053;-78
2021/08/21 01:47:11;;;;;;;21.70;12.55;;;;;;;12.87;100.00;98073.91;5015799;28;20147;-77
2021/08/21 01:49:39;;;;;;;23.98;11.38;;;;;;;12.93;100.00;98075.34;4999453;28;20049;-78
2021/08/21 01:52:06;;;;;;;31.80;12.55;;;;;;;12.75;100.00;98071.03;5033465;28;20049;-78
2021/08/21 01:54:34;;;;;;;24.45;13.23;;;;;;;12.69;100.00;98066.84;5033618;28;20046;-77
2021/08/21 01:57:03;;;;;;;29.30;12.35;;;;;;;12.76;100.00;98073.41;5016491;28;20128;-80
2021/08/21 01:59:37;;;;;;;24.42;13.40;;;;;;;12.78;100.00;98073.88;5035055;28;20053;-78
2021/08/21 02:02:06;;;;;;;24.83;12.55;;;;;;;12.87;100.00;98071.19;5000505;28;20152;-78
2021/08/21 02:04:32;;;;;;;26.00;13.70;;;;;;;12.99;100.00;98074.88;5033381;28;20520;-78
2021/08/21 02:06:59;;;;;;;19.17;11.90;;;;;;;13.03;100.00;98075.03;4999490;28;20120;-79
2021/08/21 02:09:27;;;;;;;22.40;11.75;;;;;;;12.80;100.00;98076.31;5016133;28;20046;-78
2021/08/21 02:11:56;;;;;;;26.27;11.48;;;;;;;13.03;100.00;98075.03;4999040;28;20523;-79
2021/08/21 02:14:24;;;;;;;19.80;12.38;;;;;;;12.88;100.00;98070.06;5015274;28;20041;-77
2021/08/21 02:16:53;;;;;;;22.17;11.90;;;;;;;12.93;100.00;98064.50;5032979;28;20045;-79
2021/08/21 02:19:21;;;;;;;20.02;12.05;;;;;;;12.82;100.00;98065.91;5033414;28;20052;-79
2021/08/21 02:21:49;;;;;;;19.77;11.63;;;;;;;12.79;100.00;98064.63;5015667;28;20052;-79
2021/08/21 02:24:18;;;;;;;18.58;10.93;;;;;;;12.87;100.00;98071.19;5032278;28;20085;-77
2021/08/21 02:26:46;;;;;;;21.02;12.10;;;;;;;12.85;100.00;98060.63;5014853;28;20049;-77
2021/08/21 02:29:14;;;;;;;21.48;11.63;;;;;;;12.92;100.00;98060.97;5014916;28;20037;-77
2021/08/21 02:31:41;;;;;;;19.73;11.00;;;;;;;12.95;100.00;98062.25;5032485;28;20045;-77
2021/08/21 02:34:08;;;;;;;19.70;10.73;;;;;;;12.92;100.00;98062.88;5003191;28;20055;-78
2021/08/21 02:36:35;;;;;;;15.90;9.70;;;;;;;12.88;100.00;98051.84;5029812;28;20045;-78
2021/08/21 02:39:02;;;;;;;18.60;10.27;;;;;;;12.86;100.00;98067.66;5029999;28;20045;-77
2021/08/21 02:41:29;;;;;;;16.80;10.75;;;;;;;12.86;100.00;98061.44;5029682;28;20277;-78
2021/08/21 02:43:55;;;;;;;19.52;10.02;;;;;;;12.86;100.00;98066.88;5047000;28;20041;-78
2021/08/21 02:46:22;;;;;;;15.45;8.95;;;;;;;12.80;100.00;98063.50;5013729;28;20053;-77
2021/08/21 02:48:49;;;;;;;14.27;8.90;;;;;;;12.83;100.00;98062.06;5032170;28;20045;-77
2021/08/21 02:51:15;;;;;;;14.60;9.07;;;;;;;12.80;100.00;98068.16;5037163;28;20056;-78
2021/08/21 02:53:42;;;;;;;15.02;9.23;;;;;;;12.52;100.00;98064.91;5046068;28;20041;-77
2021/08/21 02:56:09;;;;;;;14.93;8.35;;;;;;;12.66;100.00;98072.91;5028043;28;20045;-78
2021/08/21 02:58:36;;;;;;;15.68;8.98;;;;;;;12.47;100.00;98067.75;5046350;28;20049;-78
2021/08/21 03:01:02;;;;;;;17.17;9.40;;;;;;;12.48;100.00;98077.53;5046616;28;20054;-77
2021/08/21 03:03:29;;;;;;;17.25;9.70;;;;;;;12.49;100.00;98069.03;5046944;28;20041;-78
2021/08/21 03:05:56;;;;;;;18.95;9.38;;;;;;;12.49;100.00;98063.63;5030684;28;20070;-78
2021/08/21 03:08:23;;;;;;;21.77;10.25;;;;;;;12.50;100.00;98062.50;5046778;28;20083;-78
2021/08/21 03:10:50;;;;;;;20.23;10.15;;;;;;;12.56;100.00;98065.88;5030355;28;20045;-78
2021/08/21 03:13:16;;;;;;;16.20;9.55;;;;;;;12.54;100.00;98064.59;5017367;28;20501;-79
2021/08/21 03:15:43;;;;;;;16.48;9.35;;;;;;;12.59;100.00;98069.88;5002374;28;20049;-79
2021/08/21 03:18:09;;;;;;;14.02;9.25;;;;;;;12.52;100.00;98064.91;5019150;28;20049;-78
2021/08/21 03:20:36;;;;;;;18.27;10.25;;;;;;;12.54;100.00;98072.75;5007394;28;20054;-79
2021/08/21 03:23:04;;;;;;;24.70;11.23;;;;;;;12.55;100.00;98068.91;5016107;28;20033;-79
2021/08/21 03:25:30;;;;;;;18.13;10.73;;;;;;;12.38;100.00;98070.47;5020624;28;20129;-79
2021/08/21 03:27:57;;;;;;;18.02;10.45;;;;;;;12.48;100.00;98066.66;5021044;28;20053;-79
2021/08/21 03:30:24;;;;;;;16.52;10.38;;;;;;;12.54;100.00;98081.69;5020643;28;20049;-79
2021/08/21 03:32:50;;;;;;;18.48;10.43;;;;;;;12.48;100.00;98075.59;5038910;28;20045;-79
2021/08/21 03:35:19;;;;;;;23.35;10.55;;;;;;;12.41;100.00;98077.19;5004605;28;20053;-79
2021/08/21 03:37:46;;;;;;;20.17;11.40;;;;;;;12.33;100.00;98064.38;5003142;28;20045;-79
2021/08/21 03:40:13;;;;;;;17.38;11.23;;;;;;;12.31;100.00;98070.13;5021434;28;20080;-79
2021/08/21 03:42:39;;;;;;;21.20;11.73;;;;;;;12.31;100.00;98078.25;5048297;28;20125;-78
2021/08/21 03:45:07;;;;;;;22.58;12.07;;;;;;;12.43;100.00;98075.75;5038239;28;20055;-78
2021/08/21 03:47:33;;;;;;;17.60;11.43;;;;;;;12.45;100.00;98070.00;5040400;28;20049;-79
2021/08/21 03:50:00;;;;;;;23.15;11.52;;;;;;;12.43;100.00;98074.94;5039684;28;20059;-78
2021/08/21 03:52:33;;;;;;;19.98;12.02;;;;;;;12.38;100.00;98075.91;5040057;28;20071;-79
2021/08/21 03:55:00;;;;;;;21.92;12.63;;;;;;;12.30;100.00;98082.09;5039096;28;20048;-79
2021/08/21 03:57:26;;;;;;;22.77;12.30;;;;;;;12.26;100.00;98080.34;5018589;28;20248;-79
2021/08/21 03:59:53;;;;;;;20.75;12.60;;;;;;;12.26;100.00;98083.84;5020300;28;20137;-79
2021/08/21 04:02:20;;;;;;;18.83;11.50;;;;;;;12.38;100.00;98083.25;5004009;28;20052;-78
2021/08/21 04:04:47;;;;;;;23.75;12.15;;;;;;;12.04;100.00;98070.34;5007995;28;20053;-77
2021/08/21 04:07:17;;;;;;;21.65;11.82;;;;;;;12.21;100.00;98083.19;5041437;28;20037;-79
2021/08/21 04:09:44;;;;;;;19.80;11.70;;;;;;;12.17;100.00;98083.03;5007630;28;20140;-78
2021/08/21 04:12:14;;;;;;;29.48;13.00;;;;;;;12.05;100.00;98082.81;5021498;28;20140;-79
2021/08/21 04:14:40;;;;;;;21.05;12.73;;;;;;;12.14;100.00;98083.63;5037441;28;20041;-79
2021/08/21 04:17:07;;;;;;;25.02;12.27;;;;;;;12.20;100.00;98089.72;5029174;28;20095;-80
2021/08/21 04:19:34;;;;;;;22.08;11.38;;;;;;;12.02;100.00;98088.88;5046217;28;20072;-79
2021/08/21 04:22:00;;;;;;;25.45;10.85;;;;;;;12.16;100.00;98096.88;5025147;28;20077;-79
2021/08/21 04:24:27;;;;;;;26.25;12.00;;;;;;;12.24;100.00;98086.06;5037552;28;20045;-79
2021/08/21 04:26:54;;;;;;;20.67;11.15;;;;;;;12.25;100.00;98087.69;5019641;28;20085;-80
2021/08/21 04:29:20;;;;;;;24.98;12.40;;;;;;;12.28;100.00;98091.69;5021538;28;20044;-80
2021/08/21 04:31:47;;;;;;;23.35;12.98;;;;;;;12.28;100.00;98094.41;5021219;28;20046;-79
2021/08/21 04:34:14;;;;;;;23.85;14.00;;;;;;;12.36;100.00;98085.47;5027658;28;20401;-80
2021/08/21 04:36:41;;;;;;;23.25;13.05;;;;;;;12.36;100.00;98086.25;5013941;28;20667;-80
2021/08/21 04:39:07;;;;;;;25.55;12.23;;;;;;;12.39;100.00;98088.34;5009984;28;20057;-79
2021/08/21 04:41:34;;;;;;;20.85;12.00;;;;;;;12.45;100.00;98089.81;5022334;28;20042;-79
2021/08/21 04:44:02;;;;;;;20.38;12.13;;;;;;;12.58;100.00;98093.50;5006236;28;20034;-80
2021/08/21 04:46:29;;;;;;;23.35;13.05;;;;;;;12.67;100.00;98093.53;5017272;28;20493;-79
2021/08/21 04:48:56;;;;;;;23.13;12.98;;;;;;;12.71;100.00;98094.50;4983375;28;20132;-80
2021/08/21 04:51:22;;;;;;;26.17;14.15;;;;;;;12.76;100.00;98089.72;5018977;28;20049;-79
2021/08/21 04:53:49;;;;;;;23.42;15.10;;;;;;;12.77;100.00;98085.88;4983451;28;20037;-79
2021/08/21 04:56:16;;;;;;;24.63;13.20;;;;;;;12.72;100.00;98093.38;4984825;28;20057;-80
2021/08/21 04:58:42;;;;;;;21.40;12.93;;;;;;;12.85;100.00;98092.44;4999014;28;20046;-80
2021/08/21 05:01:10;;;;;;;25.73;12.32;;;;;;;12.83;100.00;98097.38;5017731;28;20465;-80
2021/08/21 05:03:37;;;;;;;29.15;12.23;;;;;;;12.98;100.00;98100.44;5012270;28;20053;-79
2021/08/21 05:06:07;;;;;;;17.35;11.13;;;;;;;13.01;100.00;98102.53;4982415;28;20056;-79
2021/08/21 05:08:34;;;;;;;21.23;11.02;;;;;;;13.00;100.00;98098.22;5015927;28;20042;-79
2021/08/21 05:11:01;;;;;;;19.50;10.70;;;;;;;13.13;100.00;98110.09;5016809;28;20045;-79
2021/08/21 05:13:27;;;;;;;19.45;10.90;;;;;;;13.25;100.00;98104.81;4996145;28;20056;-78
2021/08/21 05:15:54;;;;;;;18.05;10.25;;;;;;;13.36;100.00;98102.56;5004270;28;20049;-80
2021/08/21 05:18:31;;;;;;;21.80;11.13;;;;;;;13.52;100.00;98107.16;5001610;28;20046;-80
2021/08/21 05:21:09;;;;;;;17.60;10.40;;;;;;;13.57;100.00;98109.75;5006727;28;20045;-78
2021/08/21 05:23:42;;;;;;;19.25;11.68;;;;;;;13.73;100.00;98110.81;5034158;28;20060;-79
2021/08/21 05:26:13;;;;;;;19.70;11.30;;;;;;;13.82;100.00;98112.72;5009453;28;20049;-78
2021/08/21 05:28:40;;;;;;;19.15;12.18;;;;;;;13.90;100.00;98111.91;5010573;28;20046;-80
2021/08/21 05:31:06;;;;;;;22.40;13.13;;;;;;;14.03;100.00;98105.47;5024243;28;20042;-81
2021/08/21 05:33:33;;;;;;;21.20;13.10;;;;;;;14.15;100.00;98119.19;5003111;28;20077;-80
2021/08/21 05:36:00;;;;;;;28.98;15.52;;;;;;;14.33;100.00;98121.56;4992648;28;20038;-79
2021/08/21 05:38:27;;;;;;;29.02;15.43;;;;;;;14.44;100.00;98113.81;5019703;28;20075;-80
2021/08/21 05:40:54;;;;;;;34.70;18.67;;;;;;;14.65;100.00;98114.66;5056931;28;20080;-80
2021/08/21 05:43:21;;;;;;;33.25;17.90;;;;;;;14.87;100.00;98116.28;5032509;28;20451;-80
2021/08/21 05:45:48;;;;;;;41.72;19.15;;;;;;;15.01;100.00;98105.94;5022409;28;20041;-80
2021/08/21 05:48:14;;;;;;;32.88;18.38;;;;;;;15.22;100.00;98119.56;5053344;28;20049;-79
2021/08/21 05:50:41;;;;;;;32.72;19.27;;;;;;;15.38;100.00;98126.03;5012154;28;20038;-80
2021/08/21 05:53:09;;;;;;;38.00;18.25;;;;;;;15.54;100.00;98106.00;5050072;28;20052;-81
2021/08/21 05:55:38;;;;;;;27.50;17.13;;;;;;;15.71;100.00;98120.63;5027272;28;20049;-79
2021/08/21 05:58:04;;;;;;;32.92;17.98;;;;;;;15.72;100.00;98117.53;5042977;28;20053;-81
2021/08/21 06:00:31;;;;;;;30.40;17.15;;;;;;;15.89;100.00;98113.84;5009299;28;20048;-80
2021/08/21 06:02:58;;;;;;;28.45;16.27;;;;;;;16.11;100.00;98119.69;5023066;28;20532;-81
2021/08/21 06:05:25;;;;;;;26.42;16.42;;;;;;;16.30;100.00;98123.81;5020384;28;20049;-81
2021/08/21 06:07:51;;;;;;;27.85;15.57;;;;;;;16.49;100.00;98132.28;5021372;28;20045;-79
2021/08/21 06:10:21;;;;;;;24.40;15.40;;;;;;;16.66;100.00;98119.22;5018425;28;20033;-82
2021/08/21 06:12:48;;;;;;;26.90;15.20;;;;;;;16.71;100.00;98110.78;5002607;28;20054;-80
2021/08/21 06:15:15;;;;;;;24.25;14.55;;;;;;;16.94;100.00;98127.50;5011058;28;20041;-79
2021/08/21 06:17:42;;;;;;;26.67;14.45;;;;;;;16.99;100.00;98132.72;5022907;28;20386;-80
2021/08/21 06:20:15;;;;;;;23.40;14.13;;;;;;;17.15;100.00;98130.88;5007158;28;20425;-82
2021/08/21 06:22:42;;;;;;;20.98;13.57;;;;;;;17.14;100.00;98115.59;5033174;28;20041;-82
2021/08/21 06:25:10;;;;;;;20.58;13.20;;;;;;;17.31;100.00;98129.03;5026049;28;20041;-81
2021/08/21 06:27:37;;;;;;;20.73;12.82;;;;;;;17.36;100.00;98127.97;5020665;28;20045;-81
2021/08/21 06:30:06;;;;;;;21.95;12.70;;;;;;;17.65;100.00;98146.06;5007823;28;20041;-82
2021/08/21 06:32:33;;;;;;;21.75;11.68;;;;;;;17.61;100.00;98125.97;5036220;28;20045;-82
2021/08/21 06:35:00;;;;;;;17.27;11.52;;;;;;;17.73;100.00;98120.47;5036592;28;20038;-81
2021/08/21 06:37:30;;;;;;;16.63;11.32;;;;;;;17.98;100.00;98130.16;5039113;28;20041;-84
2021/08/21 06:39:56;;;;;;;19.70;12.02;;;;;;;18.01;100.00;98129.44;5020797;28;20056;-83
2021/08/21 06:42:25;;;;;;;24.20;11.30;;;;;;;18.14;100.00;98128.22;5021337;28;20045;-83
2021/08/21 06:44:52;;;;;;;17.50;11.40;;;;;;;18.47;100.00;98130.66;5021051;28;20045;-82
2021/08/21 06:47:19;;;;;;;20.90;10.38;;;;;;;18.45;100.00;98117.25;5006209;28;20480;-81
2021/08/21 06:49:46;;;;;;;21.52;10.55;;;;;;;18.63;100.00;98125.97;5034452;28;20064;-82
2021/08/21 06:52:12;;;;;;;18.00;10.70;;;;;;;18.72;100.00;98115.59;5001843;28;20113;-82
2021/08/21 06:54:39;;;;;;;16.90;10.45;;;;;;;18.74;100.00;98128.97;5033019;28;20049;-83
2021/08/21 06:57:06;;;;;;;16.55;10.90;;;;;;;18.95;100.00;98124.75;5031377;28;20045;-83
2021/08/21 06:59:33;;;;;;;16.48;10.82;;;;;;;19.08;100.00;98128.97;5038698;28;20046;-82
2021/08/21 07:02:04;;;;;;;17.80;10.40;;;;;;;19.18;100.00;98119.38;5019534;28;20049;-82
2021/08/21 07:04:31;;;;;;;15.30;10.18;;;;;;;19.30;100.00;98116.53;5038067;28;20040;-82
2021/08/21 07:06:58;;;;;;;17.38;10.15;;;;;;;19.39;100.00;98121.81;5021083;28;20064;-82
2021/08/21 07:09:24;;;;;;;13.48;9.80;;;;;;;19.52;100.00;98117.78;5020686;28;20057;-83
2021/08/21 07:11:51;;;;;;;13.60;9.20;;;;;;;19.73;100.00;98124.50;5048499;28;20687;-83
2021/08/21 07:14:17;;;;;;;13.40;9.00;;;;;;;19.88;100.00;98118.13;5033771;28;20051;-82
2021/08/21 07:16:44;;;;;;;11.27;8.50;;;;;;;19.97;100.00;98119.84;5053338;28;20029;-83
2021/08/21 07:19:11;;;;;;;12.55;8.25;;;;;;;20.28;100.00;98114.16;5020028;28;20080;-82
2021/08/21 07:21:38;;;;;;;11.38;8.25;;;;;;;20.45;100.00;98130.97;5051230;28;20045;-80
2021/08/21 07:24:05;;;;;;;16.42;8.82;;;;;;;20.62;100.00;98118.66;5033597;28;20030;-82
2021/08/21 07:26:33;;;;;;;14.10;8.60;;;;;;;20.73;100.00;98122.38;5050562;28;20056;-82
2021/08/21 07:29:01;;;;;;;13.90;8.68;;;;;;;20.82;100.00;98122.13;5033823;28;20046;-81
2021/08/21 07:32:31;;;;;;;;;;;;;;;;;;;;;
2021/08/21 07:35:31;;;;;;;14.10;7.35;;;;;;;21.28;100.00;98106.28;5026466;28;20474;-82
2021/08/21 07:42:07;;;;;;;10.70;6.80;;;;;;;21.88;100.00;98124.41;5033664;28;20080;-83
2021/08/21 07:44:55;;;;;;;12.65;6.60;;;;;;;22.40;100.00;98106.00;5040758;28;20048;-82
2021/08/21 07:47:52;;;;;;;9.35;5.95;;;;;;;22.84;100.00;98106.78;5048660;28;20089;-81
2021/08/21 07:50:45;;;;;;;7.40;5.63;;;;;;;22.78;100.00;98106.34;5055632;28;20029;-83
2021/08/21 07:58:35;;;;;;;13.52;5.95;;;;;;;23.08;100.00;98136.53;5039447;28;20060;-80
2021/08/21 08:01:57;;;;;;;;;;;;;;;;;;;;;
2021/08/21 08:09:07;;;;;;;9.77;5.55;;;;;;;22.91;100.00;98104.06;4978227;28;20053;-81
2021/08/21 08:12:23;;;;;;;9.23;5.78;;;;;;;23.79;100.00;98131.41;5000453;28;20078;-80
2021/08/21 08:16:06;;;;;;;;;;;;;;;;;;;;;
2021/08/21 08:20:08;;;;;;;8.43;4.78;;;;;;;24.37;100.00;98098.75;4940620;29;20445;-79
2021/08/21 08:23:58;;;;;;;6.95;4.45;;;;;;;25.32;94.83;98128.38;4836783;29;20589;-79
2021/08/21 08:31:49;;;;;;;;;;;;;;;;;;;;;
2021/08/21 08:35:51;;;;;;;;;;;;;;;;;;;;;
2021/08/21 08:39:22;;;;;;;6.30;3.88;;;;;;;25.31;69.81;98126.81;4884190;29;20455;-80
2021/08/21 08:42:47;;;;;;;7.60;3.50;;;;;;;25.72;71.46;98093.78;4954223;29;20047;-80
2021/08/21 08:49:15;;;;;;;9.25;4.25;;;;;;;26.13;72.16;98122.53;5042756;28;20049;-80
2021/08/21 08:51:45;;;;;;;10.10;4.72;;;;;;;25.52;76.47;98112.91;5041612;28;20631;-80
2021/08/21 08:54:34;;;;;;;8.15;4.40;;;;;;;25.85;69.63;98106.81;5042039;28;20076;-80
2021/08/21 08:57:22;;;;;;;7.07;3.80;;;;;;;26.01;69.85;98107.09;5041756;28;20045;-80
2021/08/21 09:00:10;;;;;;;6.22;3.65;;;;;;;25.83;70.80;98105.63;5042564;28;20059;-80
2021/08/21 09:08:12;;;;;;;6.47;3.40;;;;;;;27.03;56.35;98127.03;4890338;29;20081;-80
2021/08/21 09:11:25;;;;;;;11.52;4.10;;;;;;;26.76;55.75;98092.72;4880567;29;20046;-80
2021/08/21 09:14:46;;;;;;;5.65;3.60;;;;;;;27.25;57.97;98120.06;4885493;29;20045;-80
2021/08/21 09:18:06;;;;;;;5.35;3.60;;;;;;;27.36;52.94;98101.25;4784688;29;20135;-80
2021/08/21 09:21:40;;;;;;;5.43;3.63;;;;;;;27.86;51.68;98120.97;4872182;29;20049;-79
2021/08/21 09:24:53;;;;;;;6.88;3.85;;;;;;;27.23;54.91;98099.44;4841839;29;20065;-80
2021/08/21 09:37:25;;;;;;;22.63;5.40;;;;;;;27.68;56.89;98101.72;4837150;29;20057;-82
2021/08/21 09:42:00;;;;;;;7.32;4.05;;;;;;;26.75;56.67;98091.94;4868496;29;20451;-81
2021/08/21 09:45:17;;;;;;;10.23;3.30;;;;;;;26.80;62.67;98099.06;4903302;29;20075;-79
2021/08/21 09:49:04;;;;;;;;;;;;;;;;;;;;;
2021/08/21 09:52:36;;;;;;;5.63;3.15;;;;;;;27.80;55.68;98122.63;4973618;28;20059;-80
2021/08/21 10:04:03;;;;;;;7.00;3.35;;;;;;;27.27;50.75;98122.44;5011172;28;20120;-81
2021/08/21 10:12:26;;;;;;;;;;;;;;;;;;;;;
2021/08/21 10:15:15;;;;;;;5.82;2.83;;;;;;;28.32;48.03;98093.28;5031310;28;20056;-81
2021/08/21 10:18:12;;;;;;;;;;;;;;;;;;;;;
2021/08/21 10:21:53;;;;;;;5.82;2.95;;;;;;;29.80;42.84;98072.31;5031842;28;20069;-81
2021/08/21 10:25:21;;;;;;;4.22;2.70;;;;;;;29.80;42.84;98072.31;4922723;29;20067;-81
2021/08/21 10:28:17;;;;;;;6.55;2.50;;;;;;;32.23;39.18;98067.94;4842325;29;20058;-82
2021/08/21 10:33:19;;;;;;;3.22;2.42;;;;;;;32.69;36.92;98089.69;4994337;28;20541;-78
2021/08/21 10:35:54;;;;;;;3.35;2.60;;;;;;;30.60;39.78;98092.03;4993526;28;20482;-79
2021/08/21 10:38:33;;;;;;;5.10;2.67;;;;;;;31.08;39.70;98087.63;4992737;28;20079;-80
2021/08/21 10:41:10;;;;;;;3.78;2.67;;;;;;;33.00;40.06;98081.44;4992267;28;20097;-80
2021/08/21 10:43:44;;;;;;;2.97;2.33;;;;;;;32.81;36.21;98088.88;4976880;28;20043;-80
2021/08/21 10:46:12;;;;;;;5.50;2.95;;;;;;;33.58;34.51;98082.56;4993389;28;20121;-81
2021/08/21 10:48:38;;;;;;;3.67;2.00;;;;;;;32.99;35.01;98077.81;4998661;28;20098;-81
2021/08/21 10:51:37;;;;;;;2.95;2.10;;;;;;;34.67;31.81;98076.75;4993970;28;20039;-81
2021/08/21 10:54:24;;;;;;;2.97;2.28;;;;;;;35.00;31.26;98078.53;4993211;28;20288;-80
2021/08/21 10:56:55;;;;;;;3.42;2.20;;;;;;;35.06;32.83;98075.91;4964014;28;20072;-81
2021/08/21 10:59:45;;;;;;;3.30;2.13;;;;;;;33.09;35.32;98065.47;4977067;28;20522;-81
2021/08/21 11:02:20;;;;;;;4.22;2.33;;;;;;;34.65;32.00;98077.22;4977627;28;20045;-81
2021/08/21 11:04:47;;;;;;;5.57;4.40;;;;;;;35.04;32.76;98065.13;4993962;28;20405;-81
2021/08/21 11:07:29;;;;;;;4.05;2.28;;;;;;;33.94;32.64;98064.41;4993910;28;20102;-80
2021/08/21 11:10:23;;;;;;;4.80;2.38;;;;;;;32.02;36.38;98066.59;4994089;28;20042;-81
2021/08/21 11:12:54;;;;;;;2.72;2.30;;;;;;;32.36;36.67;98058.31;4971712;28;20050;-79
2021/08/21 11:15:31;;;;;;;3.13;2.47;;;;;;;34.23;33.54;98064.84;4973969;28;20061;-80
2021/08/21 11:17:58;;;;;;;3.28;2.42;;;;;;;34.97;31.32;98061.81;4974243;28;20129;-80
2021/08/21 11:20:34;;;;;;;2.42;2.00;;;;;;;36.16;30.56;98057.66;4975576;28;20490;-80
2021/08/21 11:23:07;;;;;;;;;;;;;;;35.24;32.34;98059.03;4975114;28;20054;-80
2021/08/21 11:25:41;;;;;;;5.30;2.33;;;;;;;35.21;31.22;98054.31;4992156;28;19925;-81
2021/08/21 11:28:12;;;;;;;3.38;2.10;;;;;;;34.30;34.28;98056.16;4992577;28;20054;-80
2021/08/21 11:30:40;;;;;;;2.25;1.92;;;;;;;33.39;33.42;98054.81;4974335;28;20514;-80
2021/08/21 11:33:08;;;;;;;3.42;1.92;;;;;;;32.36;35.41;98061.09;4991744;28;20278;-79
2021/08/21 11:35:59;;;;;;;2.80;1.92;;;;;;;31.44;36.12;98051.84;4991708;28;20113;-80
2021/08/21 11:38:32;;;;;;;3.60;2.05;;;;;;;32.45;36.19;98054.81;4991225;28;20105;-80
2021/08/21 11:41:09;;;;;;;4.70;2.00;;;;;;;31.86;34.61;98050.63;4991361;28;20093;-80
2021/08/21 11:43:40;;;;;;;4.07;1.90;;;;;;;30.85;36.30;98043.88;4974592;28;20462;-80
2021/08/21 11:46:14;;;;;;;3.27;2.17;;;;;;;30.16;40.06;98048.75;4974465;28;20438;-80
2021/08/21 11:48:41;;;;;;;4.20;2.00;;;;;;;29.66;40.08;98045.47;4992043;28;20473;-79
2021/08/21 11:51:09;;;;;;;2.70;1.98;;;;;;;29.48;39.83;98045.06;4991040;28;20057;-79
2021/08/21 11:53:41;;;;;;;2.53;1.98;;;;;;;29.47;42.78;98041.50;4991056;28;20050;-79
2021/08/21 11:56:10;;;;;;;3.70;2.08;;;;;;;29.24;44.14;98038.00;4973992;28;20038;-80
2021/08/21 11:58:46;;;;;;;3.08;2.33;;;;;;;29.14;45.68;98045.31;4974436;28;20125;-80
2021/08/21 12:01:21;;;;;;;5.95;2.45;;;;;;;29.04;45.37;98038.72;4992623;28;20407;-79
2021/08/21 12:06:26;;;;;;;3.60;2.22;;;;;;;30.62;44.59;98039.28;4991282;28;20052;-80
2021/08/21 12:09:06;;;;;;;7.35;2.20;;;;;;;32.61;39.21;98035.06;4991328;28;20455;-80
2021/08/21 12:11:33;;;;;;;3.05;2.00;;;;;;;34.21;35.39;98034.41;4974389;28;20057;-79
2021/08/21 12:14:02;;;;;;;3.10;2.25;;;;;;;34.55;35.50;98035.44;4989256;28;20263;-80
2021/08/21 12:16:30;;;;;;;2.88;2.30;;;;;;;34.48;34.55;98030.91;4991669;28;20090;-79
2021/08/21 12:18:58;;;;;;;5.18;2.20;;;;;;;36.11;31.55;98038.53;4992778;28;20557;-80
2021/08/21 12:21:25;;;;;;;4.22;2.40;;;;;;;35.27;32.61;98041.19;4991728;28;20054;-80
2021/08/21 12:23:54;;;;;;;6.45;2.05;;;;;;;34.90;33.39;98028.31;4991377;28;20043;-80
2021/08/21 12:26:34;;;;;;;2.65;2.40;;;;;;;36.85;30.66;98034.88;4973803;28;20042;-80
2021/08/21 12:29:01;;;;;;;3.28;2.00;;;;;;;37.21;30.14;98033.84;4992005;28;20038;-80
2021/08/21 12:31:35;;;;;;;2.60;2.40;;;;;;;36.18;29.95;98026.94;4994054;28;20046;-79
2021/08/21 12:34:02;;;;;;;4.72;1.88;;;;;;;38.52;27.93;98027.38;5012601;28;20042;-80
2021/08/21 12:36:30;;;;;;;2.28;1.80;;;;;;;39.65;26.60;98023.38;4996348;28;20353;-80
2021/08/21 12:39:21;;;;;;;1.88;1.77;;;;;;;38.88;26.97;98018.38;4990525;28;20101;-80
2021/08/21 12:41:53;;;;;;;2.67;1.90;;;;;;;36.70;27.80;98017.88;4973061;28;20479;-80
2021/08/21 12:44:30;;;;;;;3.75;1.98;;;;;;;33.65;30.61;98008.50;4990687;28;20046;-79
2021/08/21 12:46:59;;;;;;;3.40;1.95;;;;;;;32.73;33.31;98020.22;4990971;28;20038;-79
2021/08/21 12:49:41;;;;;;;4.30;1.90;;;;;;;32.40;34.44;98016.13;4975920;28;20138;-78
2021/08/21 12:52:12;;;;;;;3.83;1.90;;;;;;;31.86;33.81;98013.44;4992266;28;20530;-78
2021/08/21 12:54:42;;;;;;;3.78;2.10;;;;;;;31.86;34.56;98011.41;4994783;28;20042;-79
2021/08/21 12:57:20;;;;;;;4.43;2.10;;;;;;;31.16;37.60;98019.06;4994794;28;20330;-79
2021/08/21 12:59:59;;;;;;;2.60;2.03;;;;;;;29.79;38.36;98015.69;4995427;28;20275;-79